sensor_id;sensor_type;location;lat;lon;timestamp;pressure;altitude;pressure_sealevel;temperature;humidity
22261;BME280;11299;43.202;27.920;2022-09-28T00:01:24;100022.44;;;17.50;100.00
22261;BME280;11299;43.202;27.920;2022-09-28T00:03:51;99992.88;;;17.35;100.00
22261;BME280;11299;43.202;27.920;2022-09-28T00:06:20;99901.28;;;16.74;100.00
22261;BME280;11299;43.202;27.920;2022-09-28T00:08:46;100043.06;;;17.40;100.00
22261;BME280;11299;43.202;27.920;2022-09-28T00:11:16;99817.75;;;16.15;100.00
22261;BME280;11299;43.202;27.920;2022-09-28T00:13:42;99995.66;;;17.35;100.00
22261;BME280;11299;43.202;27.920;2022-09-28T00:16:13;100006.63;;;17.32;100.00
22261;BME280;11299;43.202;27.920;2022-09-28T00:18:41;99999.53;;;17.26;100.00
22261;BME280;11299;43.202;27.920;2022-09-28T00:21:09;100006.00;;;17.35;100.00
22261;BME280;11299;43.202;27.920;2022-09-28T00:23:36;100002.00;;;17.27;100.00
22261;BME280;11299;43.202;27.920;2022-09-28T00:26:27;100012.47;;;17.22;100.00
22261;BME280;11299;43.202;27.920;2022-09-28T00:28:55;100017.19;;;17.35;100.00
22261;BME280;11299;43.202;27.920;2022-09-28T00:31:23;100023.16;;;17.42;100.00
22261;BME280;11299;43.202;27.920;2022-09-28T00:33:53;100009.25;;;17.15;100.00
22261;BME280;11299;43.202;27.920;2022-09-28T00:36:23;100022.81;;;17.21;100.00
22261;BME280;11299;43.202;27.920;2022-09-28T00:38:49;99951.56;;;16.74;100.00
22261;BME280;11299;43.202;27.920;2022-09-28T00:41:15;100022.84;;;17.08;100.00
22261;BME280;11299;43.202;27.920;2022-09-28T00:43:41;100033.28;;;17.16;100.00
22261;BME280;11299;43.202;27.920;2022-09-28T00:46:14;100026.75;;;17.20;100.00
22261;BME280;11299;43.202;27.920;2022-09-28T00:48:55;100042.50;;;17.16;100.00
22261;BME280;11299;43.202;27.920;2022-09-28T00:51:23;100034.34;;;17.06;100.00
22261;BME280;11299;43.202;27.920;2022-09-28T00:53:51;99695.88;;;14.98;100.00
22261;BME280;11299;43.202;27.920;2022-09-28T00:56:20;99703.91;;;15.00;100.00
22261;BME280;11299;43.202;27.920;2022-09-28T00:58:50;100039.72;;;17.03;100.00
22261;BME280;11299;43.202;27.920;2022-09-28T01:01:17;100090.00;;;17.03;100.00
22261;BME280;11299;43.202;27.920;2022-09-28T01:03:43;100078.53;;;16.90;100.00
22261;BME280;11299;43.202;27.920;2022-09-28T01:06:15;100027.13;;;16.91;100.00
22261;BME280;11299;43.202;27.920;2022-09-28T01:08:42;99980.72;;;16.55;100.00
22261;BME280;11299;43.202;27.920;2022-09-28T01:11:10;99882.94;;;15.92;100.00
22261;BME280;11299;43.202;27.920;2022-09-28T01:13:36;100061.97;;;16.94;100.00
22261;BME280;11299;43.202;27.920;2022-09-28T01:16:33;100059.69;;;16.82;100.00
22261;BME280;11299;43.202;27.920;2022-09-28T01:25:11;100035.50;;;16.78;100.00
22261;BME280;11299;43.202;27.920;2022-09-28T01:27:41;100043.88;;;16.64;100.00
22261;BME280;11299;43.202;27.920;2022-09-28T01:30:09;100057.34;;;16.76;100.00
22261;BME280;11299;43.202;27.920;2022-09-28T01:38:00;100026.22;;;16.55;100.00
22261;BME280;11299;43.202;27.920;2022-09-28T01:40:29;99929.22;;;15.93;100.00
22261;BME280;11299;43.202;27.920;2022-09-28T01:43:12;99700.84;;;14.37;100.00
22261;BME280;11299;43.202;27.920;2022-09-28T01:45:49;100029.22;;;16.59;100.00
22261;BME280;11299;43.202;27.920;2022-09-28T01:48:20;100061.00;;;16.44;100.00
22261;BME280;11299;43.202;27.920;2022-09-28T01:50:49;100023.50;;;16.50;100.00
22261;BME280;11299;43.202;27.920;2022-09-28T01:55:58;100018.75;;;16.51;100.00
22261;BME280;11299;43.202;27.920;2022-09-28T01:59:09;100045.44;;;16.57;100.00
22261;BME280;11299;43.202;27.920;2022-09-28T02:04:27;100028.66;;;16.43;100.00
22261;BME280;11299;43.202;27.920;2022-09-28T02:07:00;100025.75;;;16.35;100.00
22261;BME280;11299;43.202;27.920;2022-09-28T02:09:34;99999.59;;;16.31;100.00
22261;BME280;11299;43.202;27.920;2022-09-28T02:12:09;100000.94;;;16.33;100.00
22261;BME280;11299;43.202;27.920;2022-09-28T02:14:38;99962.28;;;16.13;100.00
22261;BME280;11299;43.202;27.920;2022-09-28T02:17:05;100010.25;;;16.42;100.00
22261;BME280;11299;43.202;27.920;2022-09-28T02:19:31;99976.03;;;16.23;100.00
22261;BME280;11299;43.202;27.920;2022-09-28T02:27:57;99935.41;;;15.90;100.00
22261;BME280;11299;43.202;27.920;2022-09-28T02:30:24;100018.63;;;16.42;100.00
22261;BME280;11299;43.202;27.920;2022-09-28T02:32:53;100003.94;;;16.23;100.00
22261;BME280;11299;43.202;27.920;2022-09-28T02:35:20;100020.56;;;16.28;100.00
22261;BME280;11299;43.202;27.920;2022-09-28T02:37:47;100032.16;;;16.35;100.00
22261;BME280;11299;43.202;27.920;2022-09-28T02:40:17;100063.88;;;16.39;100.00
22261;BME280;11299;43.202;27.920;2022-09-28T02:47:55;100068.53;;;16.30;100.00
22261;BME280;11299;43.202;27.920;2022-09-28T03:07:06;99825.63;;;14.62;100.00
22261;BME280;11299;43.202;27.920;2022-09-28T03:12:35;100030.34;;;15.66;100.00
22261;BME280;11299;43.202;27.920;2022-09-28T03:15:31;100054.34;;;15.81;100.00
22261;BME280;11299;43.202;27.920;2022-09-28T03:17:57;99894.81;;;14.87;100.00
22261;BME280;11299;43.202;27.920;2022-09-28T03:20:24;100051.66;;;15.76;100.00
22261;BME280;11299;43.202;27.920;2022-09-28T03:22:50;99939.41;;;15.01;100.00
22261;BME280;11299;43.202;27.920;2022-09-28T03:25:16;100019.97;;;15.53;100.00
22261;BME280;11299;43.202;27.920;2022-09-28T03:27:41;99825.88;;;14.24;100.00
22261;BME280;11299;43.202;27.920;2022-09-28T03:30:08;100096.25;;;15.76;100.00
22261;BME280;11299;43.202;27.920;2022-09-28T03:32:34;100051.81;;;15.66;100.00
22261;BME280;11299;43.202;27.920;2022-09-28T03:35:00;100087.34;;;15.74;100.00
22261;BME280;11299;43.202;27.920;2022-09-28T03:37:26;100077.09;;;15.69;100.00
22261;BME280;11299;43.202;27.920;2022-09-28T03:39:52;100055.88;;;15.55;100.00
22261;BME280;11299;43.202;27.920;2022-09-28T03:42:17;100081.34;;;15.67;100.00
22261;BME280;11299;43.202;27.920;2022-09-28T03:44:42;100049.88;;;15.48;100.00
22261;BME280;11299;43.202;27.920;2022-09-28T03:47:08;100070.19;;;15.67;100.00
22261;BME280;11299;43.202;27.920;2022-09-28T03:49:34;99998.19;;;15.18;100.00
22261;BME280;11299;43.202;27.920;2022-09-28T03:51:59;99932.25;;;14.76;100.00
22261;BME280;11299;43.202;27.920;2022-09-28T03:54:25;100095.13;;;15.58;100.00
22261;BME280;11299;43.202;27.920;2022-09-28T03:56:51;100062.66;;;15.49;100.00
22261;BME280;11299;43.202;27.920;2022-09-28T03:59:16;100050.00;;;15.38;100.00
22261;BME280;11299;43.202;27.920;2022-09-28T04:01:42;99930.63;;;14.75;100.00
22261;BME280;11299;43.202;27.920;2022-09-28T04:04:11;99951.75;;;14.76;100.00
22261;BME280;11299;43.202;27.920;2022-09-28T04:06:37;100089.09;;;15.51;100.00
22261;BME280;11299;43.202;27.920;2022-09-28T04:09:02;100074.94;;;15.48;100.00
22261;BME280;11299;43.202;27.920;2022-09-28T04:11:28;100089.09;;;15.51;100.00
22261;BME280;11299;43.202;27.920;2022-09-28T04:13:53;100069.72;;;15.60;100.00
22261;BME280;11299;43.202;27.920;2022-09-28T04:16:19;99954.25;;;14.96;100.00
22261;BME280;11299;43.202;27.920;2022-09-28T04:18:44;100033.75;;;15.45;100.00
22261;BME280;11299;43.202;27.920;2022-09-28T04:21:16;100074.31;;;15.69;100.00
22261;BME280;11299;43.202;27.920;2022-09-28T04:23:42;100071.22;;;15.71;100.00
22261;BME280;11299;43.202;27.920;2022-09-28T04:26:16;100077.03;;;15.74;100.00
22261;BME280;11299;43.202;27.920;2022-09-28T04:28:45;100076.13;;;15.79;100.00
22261;BME280;11299;43.202;27.920;2022-09-28T04:31:29;100128.88;;;15.75;100.00
22261;BME280;11299;43.202;27.920;2022-09-28T04:33:56;100063.91;;;15.75;100.00
22261;BME280;11299;43.202;27.920;2022-09-28T04:36:22;100009.56;;;15.40;100.00
22261;BME280;11299;43.202;27.920;2022-09-28T04:38:51;100077.78;;;15.80;100.00
22261;BME280;11299;43.202;27.920;2022-09-28T04:41:16;100103.69;;;15.80;100.00
22261;BME280;11299;43.202;27.920;2022-09-28T04:43:42;100083.94;;;15.77;100.00
22261;BME280;11299;43.202;27.920;2022-09-28T04:46:08;100080.84;;;15.78;100.00
22261;BME280;11299;43.202;27.920;2022-09-28T04:48:36;100105.94;;;15.97;100.00
22261;BME280;11299;43.202;27.920;2022-09-28T04:51:02;100104.69;;;16.03;100.00
22261;BME280;11299;43.202;27.920;2022-09-28T04:53:28;99984.84;;;15.34;100.00
22261;BME280;11299;43.202;27.920;2022-09-28T04:56:02;100110.75;;;16.10;100.00
22261;BME280;11299;43.202;27.920;2022-09-28T04:58:29;100113.78;;;15.95;100.00
22261;BME280;11299;43.202;27.920;2022-09-28T05:01:00;100089.91;;;15.89;100.00
22261;BME280;11299;43.202;27.920;2022-09-28T05:03:26;99989.31;;;15.35;100.00
22261;BME280;11299;43.202;27.920;2022-09-28T05:05:52;100090.53;;;15.99;100.00
22261;BME280;11299;43.202;27.920;2022-09-28T05:08:18;99995.88;;;15.44;100.00
22261;BME280;11299;43.202;27.920;2022-09-28T05:10:44;99998.69;;;15.39;100.00
22261;BME280;11299;43.202;27.920;2022-09-28T05:13:11;100146.00;;;16.20;100.00
22261;BME280;11299;43.202;27.920;2022-09-28T05:15:39;100136.13;;;16.27;100.00
22261;BME280;11299;43.202;27.920;2022-09-28T05:18:05;100118.31;;;16.23;100.00
22261;BME280;11299;43.202;27.920;2022-09-28T05:20:32;100012.34;;;15.59;100.00
22261;BME280;11299;43.202;27.920;2022-09-28T05:22:57;99986.91;;;15.47;100.00
22261;BME280;11299;43.202;27.920;2022-09-28T05:25:23;100141.09;;;16.44;100.00
22261;BME280;11299;43.202;27.920;2022-09-28T05:27:54;100117.75;;;16.40;100.00
22261;BME280;11299;43.202;27.920;2022-09-28T05:30:20;100137.47;;;16.43;100.00
22261;BME280;11299;43.202;27.920;2022-09-28T05:32:47;100132.19;;;16.60;100.00
22261;BME280;11299;43.202;27.920;2022-09-28T05:35:13;100156.91;;;16.67;100.00
22261;BME280;11299;43.202;27.920;2022-09-28T05:37:39;100121.34;;;16.72;100.00
22261;BME280;11299;43.202;27.920;2022-09-28T05:40:06;100137.47;;;16.89;100.00
22261;BME280;11299;43.202;27.920;2022-09-28T05:42:31;100142.16;;;16.93;100.00
22261;BME280;11299;43.202;27.920;2022-09-28T05:44:57;100154.84;;;17.00;100.00
22261;BME280;11299;43.202;27.920;2022-09-28T05:47:23;100070.34;;;16.53;100.00
22261;BME280;11299;43.202;27.920;2022-09-28T05:49:50;100130.47;;;17.05;100.00
22261;BME280;11299;43.202;27.920;2022-09-28T05:52:16;100152.59;;;17.29;100.00
22261;BME280;11299;43.202;27.920;2022-09-28T05:54:42;100137.69;;;17.20;100.00
22261;BME280;11299;43.202;27.920;2022-09-28T05:57:07;100147.50;;;17.31;100.00
22261;BME280;11299;43.202;27.920;2022-09-28T05:59:33;100145.13;;;17.38;100.00
22261;BME280;11299;43.202;27.920;2022-09-28T06:02:02;100116.25;;;17.29;100.00
22261;BME280;11299;43.202;27.920;2022-09-28T06:04:28;100151.31;;;17.62;100.00
22261;BME280;11299;43.202;27.920;2022-09-28T06:06:55;100121.72;;;17.34;100.00
22261;BME280;11299;43.202;27.920;2022-09-28T06:09:20;100144.97;;;17.70;100.00
22261;BME280;11299;43.202;27.920;2022-09-28T06:11:48;100155.44;;;17.78;100.00
22261;BME280;11299;43.202;27.920;2022-09-28T06:14:14;100021.97;;;17.21;100.00
22261;BME280;11299;43.202;27.920;2022-09-28T06:16:39;100059.38;;;17.47;100.00
22261;BME280;11299;43.202;27.920;2022-09-28T06:19:06;99968.47;;;16.91;100.00
22261;BME280;11299;43.202;27.920;2022-09-28T06:21:32;100147.09;;;18.22;100.00
22261;BME280;11299;43.202;27.920;2022-09-28T06:23:57;100153.56;;;18.31;100.00
22261;BME280;11299;43.202;27.920;2022-09-28T06:26:23;100151.53;;;18.45;100.00
22261;BME280;11299;43.202;27.920;2022-09-28T06:28:48;100127.19;;;18.46;100.00
22261;BME280;11299;43.202;27.920;2022-09-28T06:31:14;100109.97;;;18.39;100.00
22261;BME280;11299;43.202;27.920;2022-09-28T06:33:40;100135.81;;;18.89;100.00
22261;BME280;11299;43.202;27.920;2022-09-28T06:36:07;100138.28;;;18.90;100.00
22261;BME280;11299;43.202;27.920;2022-09-28T06:38:32;100144.31;;;19.14;100.00
22261;BME280;11299;43.202;27.920;2022-09-28T06:40:58;100143.88;;;19.21;100.00
22261;BME280;11299;43.202;27.920;2022-09-28T06:43:23;100132.00;;;19.24;100.00
22261;BME280;11299;43.202;27.920;2022-09-28T06:45:51;100091.06;;;19.23;100.00
22261;BME280;11299;43.202;27.920;2022-09-28T06:48:17;100157.69;;;19.65;100.00
22261;BME280;11299;43.202;27.920;2022-09-28T06:50:43;100032.38;;;19.18;100.00
22261;BME280;11299;43.202;27.920;2022-09-28T06:53:13;100144.50;;;20.08;100.00
22261;BME280;11299;43.202;27.920;2022-09-28T06:55:43;99914.97;;;18.91;100.00
22261;BME280;11299;43.202;27.920;2022-09-28T06:58:12;100173.91;;;20.45;100.00
22261;BME280;11299;43.202;27.920;2022-09-28T07:00:39;100150.25;;;20.63;100.00
22261;BME280;11299;43.202;27.920;2022-09-28T07:03:07;100161.31;;;20.59;100.00
22261;BME280;11299;43.202;27.920;2022-09-28T07:05:35;100037.03;;;20.08;100.00
22261;BME280;11299;43.202;27.920;2022-09-28T07:08:02;100123.28;;;20.71;100.00
22261;BME280;11299;43.202;27.920;2022-09-28T07:10:29;100148.81;;;21.12;100.00
22261;BME280;11299;43.202;27.920;2022-09-28T07:12:56;100101.72;;;20.92;100.00
22261;BME280;11299;43.202;27.920;2022-09-28T07:15:23;100009.47;;;20.56;100.00
22261;BME280;11299;43.202;27.920;2022-09-28T07:17:49;100123.34;;;21.37;100.00
22261;BME280;11299;43.202;27.920;2022-09-28T07:20:14;100130.06;;;21.53;100.00
22261;BME280;11299;43.202;27.920;2022-09-28T07:22:40;100147.00;;;21.66;100.00
22261;BME280;11299;43.202;27.920;2022-09-28T07:25:07;100143.44;;;21.77;100.00
22261;BME280;11299;43.202;27.920;2022-09-28T07:27:33;100136.66;;;21.78;100.00
22261;BME280;11299;43.202;27.920;2022-09-28T07:30:03;100133.94;;;21.90;100.00
22261;BME280;11299;43.202;27.920;2022-09-28T07:32:29;100136.34;;;22.00;100.00
22261;BME280;11299;43.202;27.920;2022-09-28T07:34:56;100111.50;;;22.02;100.00
22261;BME280;11299;43.202;27.920;2022-09-28T07:37:21;100133.47;;;22.41;100.00
22261;BME280;11299;43.202;27.920;2022-09-28T07:39:48;100031.69;;;21.98;100.00
22261;BME280;11299;43.202;27.920;2022-09-28T07:42:32;100102.53;;;22.54;100.00
22261;BME280;11299;43.202;27.920;2022-09-28T07:44:58;100126.13;;;22.82;100.00
22261;BME280;11299;43.202;27.920;2022-09-28T07:47:25;100121.09;;;23.11;100.00
22261;BME280;11299;43.202;27.920;2022-09-28T07:49:55;100131.81;;;23.18;100.00
22261;BME280;11299;43.202;27.920;2022-09-28T07:52:24;100132.75;;;23.22;100.00
22261;BME280;11299;43.202;27.920;2022-09-28T07:55:00;100124.50;;;23.17;100.00
22261;BME280;11299;43.202;27.920;2022-09-28T07:57:26;100105.28;;;23.31;100.00
22261;BME280;11299;43.202;27.920;2022-09-28T07:59:52;100111.25;;;23.54;100.00
22261;BME280;11299;43.202;27.920;2022-09-28T08:02:18;100110.16;;;23.58;100.00
22261;BME280;11299;43.202;27.920;2022-09-28T08:04:48;100075.63;;;23.49;100.00
22261;BME280;11299;43.202;27.920;2022-09-28T08:07:15;100076.53;;;23.53;100.00
22261;BME280;11299;43.202;27.920;2022-09-28T08:09:42;100098.47;;;23.84;100.00
22261;BME280;11299;43.202;27.920;2022-09-28T08:12:09;99976.09;;;23.12;100.00
22261;BME280;11299;43.202;27.920;2022-09-28T08:14:34;100093.97;;;23.95;100.00
22261;BME280;11299;43.202;27.920;2022-09-28T08:17:00;100041.06;;;23.80;100.00
22261;BME280;11299;43.202;27.920;2022-09-28T08:19:26;99965.31;;;23.54;100.00
22261;BME280;11299;43.202;27.920;2022-09-28T08:22:12;100041.81;;;24.32;100.00
22261;BME280;11299;43.202;27.920;2022-09-28T08:24:38;99971.97;;;23.89;100.00
22261;BME280;11299;43.202;27.920;2022-09-28T08:27:03;100093.97;;;24.78;100.00
22261;BME280;11299;43.202;27.920;2022-09-28T08:29:29;100078.56;;;24.75;100.00
22261;BME280;11299;43.202;27.920;2022-09-28T08:31:56;99998.53;;;24.44;100.00
22261;BME280;11299;43.202;27.920;2022-09-28T08:34:24;100048.34;;;24.95;100.00
22261;BME280;11299;43.202;27.920;2022-09-28T08:36:52;100045.97;;;25.28;100.00
22261;BME280;11299;43.202;27.920;2022-09-28T08:39:17;100081.66;;;25.48;98.63
22261;BME280;11299;43.202;27.920;2022-09-28T08:45:03;100089.31;;;25.82;92.51
22261;BME280;11299;43.202;27.920;2022-09-28T08:47:48;100079.03;;;25.59;89.58
22261;BME280;11299;43.202;27.920;2022-09-28T08:50:36;100106.50;;;26.08;95.09
22261;BME280;11299;43.202;27.920;2022-09-28T08:53:31;100067.84;;;25.81;89.32
22261;BME280;11299;43.202;27.920;2022-09-28T08:56:03;100085.38;;;25.87;84.54
22261;BME280;11299;43.202;27.920;2022-09-28T08:58:37;100080.41;;;26.19;86.15
22261;BME280;11299;43.202;27.920;2022-09-28T09:01:06;100076.25;;;26.13;83.44
22261;BME280;11299;43.202;27.920;2022-09-28T09:03:37;100105.47;;;26.17;81.51
22261;BME280;11299;43.202;27.920;2022-09-28T09:11:12;100066.50;;;26.52;77.38
22261;BME280;11299;43.202;27.920;2022-09-28T09:25:02;100056.41;;;26.73;72.95
22261;BME280;11299;43.202;27.920;2022-09-28T09:27:42;100096.94;;;27.19;75.89
22261;BME280;11299;43.202;27.920;2022-09-28T09:30:12;100080.78;;;27.23;75.66
22261;BME280;11299;43.202;27.920;2022-09-28T09:33:09;100091.09;;;27.57;70.19
22261;BME280;11299;43.202;27.920;2022-09-28T09:47:08;99782.88;;;25.99;60.86
22261;BME280;11299;43.202;27.920;2022-09-28T09:49:41;100114.84;;;28.28;55.41
22261;BME280;11299;43.202;27.920;2022-09-28T09:52:31;100102.59;;;28.24;55.67
22261;BME280;11299;43.202;27.920;2022-09-28T09:55:13;100093.06;;;28.39;55.19
22261;BME280;11299;43.202;27.920;2022-09-28T09:57:50;100094.06;;;28.53;55.42
22261;BME280;11299;43.202;27.920;2022-09-28T10:00:18;100098.03;;;28.49;55.70
22261;BME280;11299;43.202;27.920;2022-09-28T10:02:46;100091.69;;;28.59;55.09
22261;BME280;11299;43.202;27.920;2022-09-28T10:10:37;100101.56;;;28.72;51.02
22261;BME280;11299;43.202;27.920;2022-09-28T10:13:03;100108.13;;;28.76;50.53
22261;BME280;11299;43.202;27.920;2022-09-28T10:15:33;100090.13;;;28.65;48.02
22261;BME280;11299;43.202;27.920;2022-09-28T10:18:05;100076.69;;;28.65;47.41
22261;BME280;11299;43.202;27.920;2022-09-28T10:20:32;100080.53;;;28.80;47.41
22261;BME280;11299;43.202;27.920;2022-09-28T10:22:59;100091.31;;;28.64;47.67
22261;BME280;11299;43.202;27.920;2022-09-28T10:25:29;100068.13;;;28.62;46.71
22261;BME280;11299;43.202;27.920;2022-09-28T10:27:56;100078.88;;;28.79;46.83
22261;BME280;11299;43.202;27.920;2022-09-28T10:30:24;100028.66;;;28.24;43.15
22261;BME280;11299;43.202;27.920;2022-09-28T10:32:54;100080.34;;;28.62;43.72
22261;BME280;11299;43.202;27.920;2022-09-28T10:35:26;100056.06;;;28.72;44.07
22261;BME280;11299;43.202;27.920;2022-09-28T10:37:59;99969.91;;;28.35;42.23
22261;BME280;11299;43.202;27.920;2022-09-28T10:40:46;100089.81;;;29.14;42.17
22261;BME280;11299;43.202;27.920;2022-09-28T10:43:31;100084.03;;;29.50;42.13
22261;BME280;11299;43.202;27.920;2022-09-28T10:46:20;100008.38;;;29.06;42.08
22261;BME280;11299;43.202;27.920;2022-09-28T10:49:05;100052.63;;;29.47;41.56
22261;BME280;11299;43.202;27.920;2022-09-28T10:51:44;100057.56;;;29.50;40.62
22261;BME280;11299;43.202;27.920;2022-09-28T10:56:40;100085.75;;;29.65;40.87
22261;BME280;11299;43.202;27.920;2022-09-28T10:59:41;100072.28;;;29.62;40.09
22261;BME280;11299;43.202;27.920;2022-09-28T11:02:18;100092.81;;;29.82;40.55
22261;BME280;11299;43.202;27.920;2022-09-28T11:04:52;100024.38;;;29.79;39.27
22261;BME280;11299;43.202;27.920;2022-09-28T11:07:24;100074.88;;;29.82;39.93
22261;BME280;11299;43.202;27.920;2022-09-28T11:09:50;100065.13;;;29.83;39.28
22261;BME280;11299;43.202;27.920;2022-09-28T11:12:22;100068.44;;;29.99;39.23
22261;BME280;11299;43.202;27.920;2022-09-28T11:14:55;99997.34;;;29.58;38.61
22261;BME280;11299;43.202;27.920;2022-09-28T11:17:28;100064.84;;;30.09;38.68
22261;BME280;11299;43.202;27.920;2022-09-28T11:19:56;100050.88;;;29.83;37.60
22261;BME280;11299;43.202;27.920;2022-09-28T11:25:22;99909.22;;;29.15;38.41
22261;BME280;11299;43.202;27.920;2022-09-28T11:30:33;100072.78;;;30.54;37.64
22261;BME280;11299;43.202;27.920;2022-09-28T11:38:39;99940.66;;;30.29;37.94
22261;BME280;11299;43.202;27.920;2022-09-28T11:41:42;100055.72;;;30.82;37.21
22261;BME280;11299;43.202;27.920;2022-09-28T11:49:48;99945.16;;;30.72;37.97
22261;BME280;11299;43.202;27.920;2022-09-28T11:58:21;100029.63;;;31.51;36.54
22261;BME280;11299;43.202;27.920;2022-09-28T12:00:53;99917.88;;;30.92;36.60
22261;BME280;11299;43.202;27.920;2022-09-28T12:03:24;100011.25;;;31.06;37.85
22261;BME280;11299;43.202;27.920;2022-09-28T12:06:10;100018.19;;;30.87;37.63
22261;BME280;11299;43.202;27.920;2022-09-28T12:08:41;100056.16;;;31.47;35.19
22261;BME280;11299;43.202;27.920;2022-09-28T12:11:17;100037.41;;;31.18;34.93
22261;BME280;11299;43.202;27.920;2022-09-28T12:13:46;100042.69;;;31.16;34.18
22261;BME280;11299;43.202;27.920;2022-09-28T12:19:03;100039.38;;;31.71;34.98
22261;BME280;11299;43.202;27.920;2022-09-28T12:29:47;100033.59;;;31.95;34.89
22261;BME280;11299;43.202;27.920;2022-09-28T12:34:40;100034.00;;;32.01;35.95
22261;BME280;11299;43.202;27.920;2022-09-28T12:42:48;100059.00;;;30.84;54.55
22261;BME280;11299;43.202;27.920;2022-09-28T12:56:56;100069.19;;;31.91;61.70
22261;BME280;11299;43.202;27.920;2022-09-28T12:59:37;100051.28;;;31.44;63.49
22261;BME280;11299;43.202;27.920;2022-09-28T13:08:08;100055.72;;;30.93;71.34
22261;BME280;11299;43.202;27.920;2022-09-28T13:11:32;100056.97;;;30.88;72.59
22261;BME280;11299;43.202;27.920;2022-09-28T13:17:29;99965.78;;;29.92;75.58
22261;BME280;11299;43.202;27.920;2022-09-28T13:23:12;100060.94;;;30.48;78.78
22261;BME280;11299;43.202;27.920;2022-09-28T13:25:43;100028.69;;;30.34;80.54
22261;BME280;11299;43.202;27.920;2022-09-28T13:28:12;100063.41;;;30.57;81.27
22261;BME280;11299;43.202;27.920;2022-09-28T13:30:40;100067.91;;;30.65;82.10
22261;BME280;11299;43.202;27.920;2022-09-28T13:33:06;99960.09;;;29.99;83.12
22261;BME280;11299;43.202;27.920;2022-09-28T13:35:40;99997.53;;;29.87;84.94
22261;BME280;11299;43.202;27.920;2022-09-28T13:46:45;100068.25;;;29.67;94.60
22261;BME280;11299;43.202;27.920;2022-09-28T13:52:46;100024.03;;;29.29;95.14
22261;BME280;11299;43.202;27.920;2022-09-28T13:58:46;100035.47;;;29.33;96.37
22261;BME280;11299;43.202;27.920;2022-09-28T14:04:14;100047.03;;;30.40;93.18
22261;BME280;11299;43.202;27.920;2022-09-28T14:06:49;100107.16;;;31.03;90.11
22261;BME280;11299;43.202;27.920;2022-09-28T14:11:59;100050.88;;;31.42;87.17
22261;BME280;11299;43.202;27.920;2022-09-28T14:14:29;100111.19;;;32.15;83.91
22261;BME280;11299;43.202;27.920;2022-09-28T14:19:53;100112.84;;;33.02;69.76
22261;BME280;11299;43.202;27.920;2022-09-28T14:25:25;99911.72;;;30.58;75.97
22261;BME280;11299;43.202;27.920;2022-09-28T14:30:52;100111.16;;;30.74;86.52
22261;BME280;11299;43.202;27.920;2022-09-28T14:35:55;100104.59;;;30.56;84.70
22261;BME280;11299;43.202;27.920;2022-09-28T14:38:44;99963.13;;;29.51;86.16
22261;BME280;11299;43.202;27.920;2022-09-28T14:41:40;100066.22;;;30.43;85.22
22261;BME280;11299;43.202;27.920;2022-09-28T14:44:11;100089.16;;;30.85;83.43
22261;BME280;11299;43.202;27.920;2022-09-28T14:46:42;100115.34;;;31.22;81.69
22261;BME280;11299;43.202;27.920;2022-09-28T14:54:19;100103.91;;;31.72;73.05
22261;BME280;11299;43.202;27.920;2022-09-28T14:59:25;99676.34;;;28.59;73.93
22261;BME280;11299;43.202;27.920;2022-09-28T15:01:59;100119.03;;;31.26;75.29
22261;BME280;11299;43.202;27.920;2022-09-28T15:04:33;100057.94;;;30.17;77.65
22261;BME280;11299;43.202;27.920;2022-09-28T15:07:03;100088.72;;;30.62;79.89
22261;BME280;11299;43.202;27.920;2022-09-28T15:09:34;100097.22;;;30.48;80.85
22261;BME280;11299;43.202;27.920;2022-09-28T15:12:01;100125.19;;;30.21;83.79
22261;BME280;11299;43.202;27.920;2022-09-28T15:14:29;100122.81;;;29.69;84.34
22261;BME280;11299;43.202;27.920;2022-09-28T15:16:57;100096.88;;;29.30;86.50
22261;BME280;11299;43.202;27.920;2022-09-28T15:19:37;100136.84;;;29.01;88.98
22261;BME280;11299;43.202;27.920;2022-09-28T15:22:16;100112.53;;;28.37;91.67
22261;BME280;11299;43.202;27.920;2022-09-28T15:24:52;100147.88;;;28.06;94.34
22261;BME280;11299;43.202;27.920;2022-09-28T15:27:19;100142.97;;;27.54;97.12
22261;BME280;11299;43.202;27.920;2022-09-28T15:30:19;99994.13;;;26.39;100.00
22261;BME280;11299;43.202;27.920;2022-09-28T15:32:47;100109.75;;;26.87;100.00
22261;BME280;11299;43.202;27.920;2022-09-28T15:35:22;100150.81;;;26.93;100.00
22261;BME280;11299;43.202;27.920;2022-09-28T15:37:49;100155.38;;;26.78;100.00
22261;BME280;11299;43.202;27.920;2022-09-28T15:40:20;100150.38;;;26.34;100.00
22261;BME280;11299;43.202;27.920;2022-09-28T15:42:47;100148.28;;;26.12;100.00
22261;BME280;11299;43.202;27.920;2022-09-28T15:47:40;100181.59;;;25.83;100.00
22261;BME280;11299;43.202;27.920;2022-09-28T15:50:32;99795.56;;;23.40;100.00
22261;BME280;11299;43.202;27.920;2022-09-28T15:53:01;100137.59;;;25.08;100.00
22261;BME280;11299;43.202;27.920;2022-09-28T15:55:28;100046.00;;;24.38;100.00
22261;BME280;11299;43.202;27.920;2022-09-28T16:00:43;100143.44;;;24.56;100.00
22261;BME280;11299;43.202;27.920;2022-09-28T16:05:50;100038.44;;;23.59;100.00
22261;BME280;11299;43.202;27.920;2022-09-28T16:08:40;100130.59;;;24.03;100.00
22261;BME280;11299;43.202;27.920;2022-09-28T16:11:20;100171.28;;;24.14;100.00
22261;BME280;11299;43.202;27.920;2022-09-28T16:14:01;100207.91;;;24.11;100.00